Airfield :
LOGIN :

Register | Disclaimer

   EN    FR    IT 

 










Legend :    VFR   Marginal VFR   IFR   Intensive IFR   Very Intensive IFR
Visi :
Ceiling :
>= 8 km
>= 3000ft
5 to 8 km
1000 to 3000 ft
1500m to 5 km
500 to 1000 ft
800 to 1500m
200 to 500 ft
< 800m
< 200 ft
Symbols :   Thunderstorms  Fog  Heavy snow  Heavy precipitations  Wind > 20 kt
SIGMETs :     Misc.  Thunderstorms  Icing  Turbulence  Mountain Waves  Volcanic Ashes







- Airport Elevation : 144 ft
- IATA code : PGF
- Download approach charts


LFMP - Perpignan

CURRENT METAR :
  • 301630Z AUTO 17017KT 140V200 9999 NCD 19/12 Q1004 TEMPO 30030G40KT 3000 TSRA BR BKN010 SCT030CB

EXPIRED METARs :
  • 301600Z AUTO 17021KT 9999 FEW100/// 21/12 Q1004 TEMPO 30030G40KT 3000 TSRA BR BKN010 SCT030CB
  • 301530Z AUTO 17021KT 9999 NCD 21/11 Q1004 TEMPO 30030G40KT 3000 TSRA BR BKN010 SCT030CB
  • 301500Z AUTO 18017G28KT 150V210 9999 NCD 21/10 Q1004 TEMPO 30030G40KT 3000 TSRA BR BKN010 SCT030CB
  • 301430Z AUTO 17016KT 9999 NCD 21/10 Q1004 TEMPO 30030G40KT 3000 TSRA BR BKN010 SCT030CB
  • 301400Z AUTO 17019KT 140V200 9999 NCD 20/10 Q1004 TEMPO 18025G40KT

TAF TAF LFMP
Valid from the 30 at 15:00 until the 01 at 15:00 UTC


301400Z 3015/0115 16020G30KT CAVOK
TEMPO 3015/3016 18025G40KT
BECMG 3016/3018 30020KT -RA BKN020
TEMPO 3016/3019 30030G40KT RA BKN030TCU
PROB30
TEMPO 3016/3020 3000 TSRA BR BKN010 SCT030CB
BECMG 3020/3022 30010KT
BECMG 3023/0101 NSW NSC
TEMPO 0110/0115 33015G25KT
ATIS : +33 4 68 63 75 12
No reported NOTAMs for that airfield.
2 SIGMETs reported for the Marseille FIR (LFMM) :
 
Embedded thunderstorms
LFMM SIGMET 5 VALID 301700/301900 LFPW
LFMM MARSEILLE FIR/UIR EMBD TS OBS WI N4300 E00230 - N4545 E00300 - N4545 E00315 - N4300 E00245 TOP FL300 MOV E 20KT NC=
Severe turbulence
LFMM SIGMET 4 VALID 301600/302000 LFPW
LFMM MARSEILLE FIR/UIR SEV TURB FCST WI N4215 E00345 - N4215 E00230 - N4630 E00300 - N4630 E00515 - N4330 E00515 SFC/FL070 STNR NC=



MET'MAP, your aeronautical weather chart ! - Copyright ORBIFLY December 2007 - Disclaimer

ORBIFLY MET'MAP TEAM :

Programming & Development : Alexandra Zaïnal
Concept & Development : Baudouin d'Aumeries
Co-Development & Prog : Marc-Olivier Méhu
Technical & hardware support : Manuel Goepfert

Contact : metmap@orbifly.com




SOURCES & CREDITS :

   NOAA